createdAt,value
2022-11-24T00:06:14.321Z,994.2
2022-11-24T00:08:42.581Z,994.2
2022-11-24T00:13:39.211Z,994.1
2022-11-24T00:16:07.392Z,994.3
2022-11-24T00:21:03.977Z,994.2
2022-11-24T00:32:19.791Z,994.4
2022-11-24T00:34:48.076Z,994.4
2022-11-24T00:44:41.160Z,994.4
2022-11-24T00:49:37.764Z,994.4
2022-11-24T00:54:34.611Z,994.4
2022-11-24T00:59:30.819Z,994.5
2022-11-24T01:04:27.381Z,994.6
2022-11-24T01:09:23.925Z,994.6
2022-11-24T01:14:20.502Z,994.8
2022-11-24T01:16:48.738Z,994.7
2022-11-24T01:24:13.627Z,994.9
2022-11-24T01:30:32.963Z,994.9
2022-11-24T01:35:29.411Z,994.9
2022-11-24T01:42:54.271Z,995
2022-11-24T01:45:22.553Z,995.1
2022-11-24T01:50:19.093Z,995.1
2022-11-24T01:55:15.638Z,995
2022-11-24T02:02:40.499Z,995
2022-11-24T02:05:08.771Z,995.1
2022-11-24T02:10:05.316Z,994.9
2022-11-24T02:15:01.823Z,994.9
2022-11-24T02:21:21.139Z,995
2022-11-24T02:26:17.705Z,994.9
2022-11-24T02:31:14.311Z,994.8
2022-11-24T02:36:10.797Z,994.8
2022-11-24T02:41:07.312Z,994.9
2022-11-24T02:46:03.941Z,995
2022-11-24T02:51:00.443Z,994.9
2022-11-24T02:55:57.043Z,995
2022-11-24T03:00:53.570Z,995
2022-11-24T03:05:50.106Z,995.1
2022-11-24T03:10:46.647Z,994.9
2022-11-24T03:15:43.259Z,995
2022-11-24T03:22:02.526Z,994.9
2022-11-24T03:26:59.055Z,995
2022-11-24T03:31:55.611Z,994.9
2022-11-24T03:39:20.420Z,994.8
2022-11-24T03:41:48.702Z,994.9
2022-11-24T03:46:45.319Z,995.1
2022-11-24T03:51:41.843Z,995.2
2022-11-24T03:59:06.608Z,995.2
2022-11-24T04:01:34.960Z,995.3
2022-11-24T04:06:31.444Z,995.2
2022-11-24T04:11:28.006Z,995.2
2022-11-24T04:18:52.852Z,995.2
2022-11-24T04:21:21.103Z,994.6
2022-11-24T04:26:17.673Z,995.3
2022-11-24T04:31:14.263Z,995.3
2022-11-24T04:39:20.324Z,995.4
2022-11-24T04:41:07.317Z,995.4
2022-11-24T04:46:03.924Z,995.4
2022-11-24T04:52:23.191Z,995.6
2022-11-24T04:57:19.694Z,995.5
2022-11-24T05:02:16.253Z,995.5
2022-11-24T05:07:17.907Z,995.6
2022-11-24T05:12:09.367Z,995.7
2022-11-24T05:17:05.924Z,995.7
2022-11-24T05:22:02.457Z,995.7
2022-11-24T05:26:59.044Z,995.7
2022-11-24T05:31:55.606Z,995.7
2022-11-24T05:36:52.133Z,995.7
2022-11-24T05:41:48.690Z,995.9
2022-11-24T05:46:45.273Z,995.9
2022-11-24T05:55:32.805Z,996.1
2022-11-24T05:58:01.075Z,996.1
2022-11-24T06:02:57.723Z,996.3
2022-11-24T06:07:54.298Z,996.4
2022-11-24T06:15:19.002Z,996.4
2022-11-24T06:17:47.284Z,996.4
2022-11-24T06:25:12.125Z,996.4
2022-11-24T06:27:40.377Z,996.3
2022-11-24T06:32:36.938Z,996.4
2022-11-24T06:37:33.494Z,996.3
2022-11-24T06:42:30.035Z,996.5
2022-11-24T06:47:26.555Z,996.5
2022-11-24T06:49:54.867Z,996.5
2022-11-24T06:54:51.387Z,996.6
2022-11-24T07:03:38.968Z,996.8
2022-11-24T07:08:35.548Z,996.7
2022-11-24T07:13:32.088Z,996.9
2022-11-24T07:18:28.624Z,996.9
2022-11-24T07:23:25.157Z,997
2022-11-24T07:28:21.740Z,996.6
2022-11-24T07:33:18.289Z,997
2022-11-24T07:38:14.805Z,997.1
2022-11-24T07:43:14.631Z,997.2
2022-11-24T07:48:07.946Z,997.4
2022-11-24T07:54:27.225Z,997.6
2022-11-24T07:59:23.777Z,997.6
2022-11-24T08:04:20.353Z,997.7
2022-11-24T08:11:45.183Z,997.8
2022-11-24T08:14:13.428Z,997.8
2022-11-24T08:19:09.994Z,998
2022-11-24T08:24:06.527Z,998
2022-11-24T08:31:31.437Z,998.1
2022-11-24T08:33:59.649Z,998.1
2022-11-24T08:38:56.182Z,998.2
2022-11-24T08:43:52.772Z,998.2
2022-11-24T08:51:17.601Z,998.3
2022-11-24T08:53:45.873Z,998.5
2022-11-24T08:58:42.506Z,998.4
2022-11-24T09:03:41.216Z,998.5
2022-11-24T09:09:58.257Z,998.6
2022-11-24T09:14:54.758Z,998.7
2022-11-24T09:19:51.323Z,998.8
2022-11-24T09:24:47.897Z,998.8
2022-11-24T09:29:44.427Z,998.9
2022-11-24T09:34:40.960Z,998.9
2022-11-24T09:39:37.548Z,999
2022-11-24T09:44:34.107Z,999
2022-11-24T09:49:30.645Z,999.1
2022-11-24T09:54:27.156Z,999.1
2022-11-24T09:59:23.753Z,999.2
2022-11-24T10:04:20.312Z,999.2
2022-11-24T10:10:39.591Z,999.2
2022-11-24T10:15:36.196Z,999.3
2022-11-24T10:20:32.712Z,999.3
2022-11-24T10:27:57.508Z,999.2
2022-11-24T10:35:22.597Z,998.8
2022-11-24T10:40:40.874Z,999.4
2022-11-24T10:47:43.753Z,999.3
2022-11-24T10:50:12.019Z,999.3
2022-11-24T10:55:08.566Z,999.2
2022-11-24T10:57:36.835Z,999.2
2022-11-24T11:02:33.439Z,999.3
2022-11-24T11:07:30.024Z,999.4
2022-11-24T11:12:43.662Z,999.3
2022-11-24T11:17:23.019Z,999.4
2022-11-24T11:23:42.331Z,999.4
2022-11-24T11:28:38.873Z,999.5
2022-11-24T11:34:04.526Z,999.5
2022-11-24T11:38:31.997Z,999.5
2022-11-24T11:43:28.521Z,999.6
2022-11-24T11:48:25.101Z,999.7
2022-11-24T11:53:21.638Z,999
2022-11-24T11:58:18.221Z,999.6
2022-11-24T12:05:43.015Z,999.6
2022-11-24T12:08:13.477Z,999.6
2022-11-24T12:13:07.854Z,999.6
2022-11-24T12:18:04.400Z,999.7
2022-11-24T12:25:29.231Z,999.8
2022-11-24T12:27:57.482Z,999.7
2022-11-24T12:32:54.041Z,999.8
2022-11-24T12:35:22.352Z,999.3
2022-11-24T12:40:18.889Z,999.8
2022-11-24T12:49:06.477Z,999.8
2022-11-24T12:54:02.978Z,1000
2022-11-24T12:58:59.540Z,1000
2022-11-24T13:03:56.073Z,1000
2022-11-24T13:08:52.661Z,1000
2022-11-24T13:13:49.200Z,1000
2022-11-24T13:18:45.759Z,1000.1
2022-11-24T13:23:42.292Z,1000.1
2022-11-24T13:29:00.633Z,1000
2022-11-24T13:33:35.419Z,1000
2022-11-24T13:36:03.693Z,1000
2022-11-24T13:43:28.514Z,1000
2022-11-24T13:49:47.809Z,1000
2022-11-24T13:54:44.335Z,1000
2022-11-24T13:59:40.929Z,1000
2022-11-24T14:04:37.488Z,999.9
2022-11-24T14:09:33.996Z,1000
2022-11-24T14:14:30.555Z,999.9
2022-11-24T14:21:55.420Z,999.9
2022-11-24T14:24:23.709Z,999.9
2022-11-24T14:29:20.224Z,999.9
2022-11-24T14:34:16.801Z,999.9
2022-11-24T14:40:36.086Z,999.9
2022-11-24T14:45:32.647Z,999.9
2022-11-24T14:50:29.233Z,1000
2022-11-24T14:55:25.701Z,1000
2022-11-24T15:00:22.268Z,999.5
2022-11-24T15:05:18.815Z,1000
2022-11-24T15:10:15.357Z,1000.1
2022-11-24T15:15:11.941Z,1000.1
2022-11-24T15:20:08.457Z,1000
2022-11-24T15:25:05.105Z,1000
2022-11-24T15:30:01.565Z,1000
2022-11-24T15:34:58.161Z,1000.1
2022-11-24T15:39:54.659Z,1000.1
2022-11-24T15:42:22.973Z,1000.2
2022-11-24T15:51:10.514Z,1000.2
2022-11-24T15:58:35.345Z,1000.2
2022-11-24T16:01:03.673Z,1000.3
2022-11-24T16:06:00.200Z,1000.4
2022-11-24T16:10:56.754Z,1000.4
2022-11-24T16:18:21.568Z,1000.4
2022-11-24T16:20:49.817Z,1000.5
2022-11-24T16:25:46.404Z,1000.5
2022-11-24T16:30:42.925Z,1000.5
2022-11-24T16:38:07.741Z,1000.5
2022-11-24T16:40:36.016Z,1000.5
2022-11-24T16:45:32.607Z,1000.5
2022-11-24T16:50:29.177Z,1000.6
2022-11-24T16:52:57.422Z,1000.5
2022-11-24T16:57:53.967Z,1000.6
2022-11-24T17:06:41.544Z,1000.6
2022-11-24T17:11:38.077Z,1000.7
2022-11-24T17:16:34.685Z,1000.7
2022-11-24T17:21:31.240Z,1000.6
2022-11-24T17:26:27.741Z,1000.7
2022-11-24T17:31:24.350Z,1000.7
2022-11-24T17:36:20.838Z,1000.7
2022-11-24T17:41:17.414Z,1000.7
2022-11-24T17:46:14.008Z,1000.7
2022-11-24T17:51:10.613Z,1000.7
2022-11-24T17:57:29.766Z,1000.8
2022-11-24T18:02:26.371Z,1000.8
2022-11-24T18:07:22.896Z,1000.8
2022-11-24T18:14:47.714Z,1000.9
2022-11-24T18:17:15.987Z,1000.9
2022-11-24T18:22:12.541Z,1000.8
2022-11-24T18:27:09.111Z,1000.8
2022-11-24T18:34:34.149Z,1000.8
2022-11-24T18:37:02.205Z,1000.7
2022-11-24T18:41:58.767Z,1000.7
2022-11-24T18:46:55.282Z,1000.7
2022-11-24T18:51:51.878Z,1000.7
2022-11-24T18:58:11.147Z,1000.8
2022-11-24T19:03:07.695Z,1000.8
2022-11-24T19:08:04.233Z,1000.7
2022-11-24T19:13:00.776Z,1000.7
2022-11-24T19:17:57.346Z,1000.7
2022-11-24T19:22:53.905Z,1000.7
2022-11-24T19:27:50.430Z,1000.7
2022-11-24T19:32:47.012Z,1000.7
2022-11-24T19:37:43.527Z,1000.7
2022-11-24T19:42:40.112Z,1000.7
2022-11-24T19:47:36.642Z,1000.7
2022-11-24T19:52:33.189Z,1000.7
2022-11-24T19:58:52.482Z,1000.6
2022-11-24T20:03:49.047Z,1000.6
2022-11-24T20:11:13.870Z,1000.5
2022-11-24T20:13:42.160Z,1000.6
2022-11-24T20:18:41.887Z,1000.6
2022-11-24T20:23:35.259Z,1000.6
2022-11-24T20:28:31.846Z,1000.6
2022-11-24T20:33:28.328Z,1000.6
2022-11-24T20:38:24.910Z,1000.7
2022-11-24T20:43:21.449Z,1000.2
2022-11-24T20:50:51.089Z,1000.7
2022-11-24T20:53:14.591Z,1000.7
2022-11-24T20:59:33.866Z,1000.7
2022-11-24T21:04:30.386Z,1000.7
2022-11-24T21:09:26.965Z,1000.7
2022-11-24T21:14:23.532Z,1000.8
2022-11-24T21:19:20.200Z,1000.7
2022-11-24T21:24:16.576Z,1000.7
2022-11-24T21:29:13.154Z,1000.7
2022-11-24T21:34:09.706Z,1000.8
2022-11-24T21:39:06.311Z,1000.7
2022-11-24T21:44:02.833Z,1000.8
2022-11-24T21:48:59.350Z,1000.9
2022-11-24T21:53:55.916Z,1000.6
2022-11-24T21:58:52.472Z,1000.7
2022-11-24T22:03:49.024Z,1000.8
2022-11-24T22:08:45.593Z,1000.8
2022-11-24T22:11:13.849Z,1000.8
2022-11-24T22:16:10.395Z,1000.7
2022-11-24T22:27:26.255Z,1000.8
2022-11-24T22:29:54.524Z,1000.8
2022-11-24T22:34:51.067Z,1000.7
2022-11-24T22:39:47.594Z,1000.7
2022-11-24T22:47:12.405Z,1000.8
2022-11-24T22:49:40.736Z,1000.7
2022-11-24T22:54:37.525Z,1000.8
2022-11-24T22:59:33.808Z,1000.8
2022-11-24T23:04:30.459Z,1000.8
2022-11-24T23:09:26.922Z,1000.9
2022-11-24T23:20:43.074Z,1000.9
2022-11-24T23:25:39.311Z,1000.8
2022-11-24T23:30:35.894Z,1000.8
2022-11-24T23:35:32.427Z,1000.7
2022-11-24T23:40:28.971Z,1000.7
2022-11-24T23:45:25.533Z,1000.7
2022-11-24T23:50:22.089Z,1000.2
2022-11-24T23:55:18.588Z,1000.7
